Time;durP1;ratioP1;P1;durP2;ratioP2;P2;SDS_P1;SDS_P2;PMS_P1;PMS_P2;Temp;Humidity;BMP_temperature;BMP_pressure;BME280_temperature;BME280_humidity;BME280_pressure;Samples;Min_cycle;Max_cycle;Signal;HPM_P1;HPM_P2
2022/02/04 00:24:06;;;;;;;9.38;5.20;;;;;;;6.69;38.45;95585.34;4991342;28;20198;-70
2022/02/04 00:26:38;;;;;;;8.98;5.30;;;;;;;6.94;37.80;95580.88;4990797;28;20670;-72
2022/02/04 00:37:00;;;;;;;7.97;5.10;;;;;;;7.13;37.92;95579.88;4991193;28;20206;-71
2022/02/04 00:39:34;;;;;;;8.10;5.50;;;;;;;5.78;39.70;95589.38;4990051;28;20272;-71
2022/02/04 00:42:07;;;;;;;9.40;4.55;;;;;;;6.00;39.21;95590.66;4990712;28;20864;-71
2022/02/04 00:44:36;;;;;;;8.32;5.10;;;;;;;6.92;38.12;95582.09;4990575;28;20209;-73
2022/02/04 00:47:26;;;;;;;7.28;4.82;;;;;;;6.17;39.48;95585.75;4991128;28;20249;-72
2022/02/04 00:50:22;;;;;;;7.22;4.50;;;;;;;6.89;37.92;95578.13;4990429;28;20690;-71
2022/02/04 00:53:02;;;;;;;8.77;5.18;;;;;;;7.49;36.97;95578.25;4990799;28;20234;-70
2022/02/04 00:55:40;;;;;;;6.07;4.30;;;;;;;7.40;36.98;95576.97;4990427;28;20202;-70
2022/02/04 01:13:12;;;;;;;7.38;4.90;;;;;;;6.88;37.96;95575.72;4990760;28;20179;-70
2022/02/04 01:25:57;;;;;;;8.27;5.20;;;;;;;7.56;36.12;95558.91;4990641;28;20194;-70
2022/02/04 01:28:26;;;;;;;8.00;5.13;;;;;;;7.47;36.21;95559.44;4990888;28;20209;-71
2022/02/04 01:30:54;;;;;;;8.23;4.82;;;;;;;7.48;36.19;95550.63;4990837;28;20186;-70
2022/02/04 01:33:22;;;;;;;7.30;4.72;;;;;;;7.90;35.89;95541.81;4990237;28;20245;-70
2022/02/04 01:35:49;;;;;;;8.25;5.28;;;;;;;7.28;36.23;95534.41;4990122;28;20214;-69
2022/02/04 01:38:16;;;;;;;7.60;4.93;;;;;;;7.09;37.00;95547.47;4989641;28;20221;-69
2022/02/04 01:40:43;;;;;;;7.53;5.03;;;;;;;7.21;37.00;95549.34;4990108;28;20191;-69
2022/02/04 01:43:10;;;;;;;9.43;4.78;;;;;;;7.13;36.81;95538.16;4989572;28;20187;-70
2022/02/04 01:45:37;;;;;;;8.25;5.53;;;;;;;7.14;36.76;95554.63;4990149;28;20194;-69
2022/02/04 01:48:04;;;;;;;8.23;5.15;;;;;;;6.95;37.02;95551.19;4990069;28;20325;-70
2022/02/04 01:50:32;;;;;;;7.82;4.85;;;;;;;7.22;36.87;95547.28;4989684;28;20577;-70
2022/02/04 01:53:01;;;;;;;10.77;5.53;;;;;;;7.33;36.79;95547.59;4989948;28;20230;-70
2022/02/04 01:55:28;;;;;;;11.73;5.70;;;;;;;7.22;36.69;95550.91;4989893;28;20195;-70
2022/02/04 01:57:56;;;;;;;8.35;5.30;;;;;;;7.11;36.50;95555.88;4990022;28;20182;-71
2022/02/04 02:00:23;;;;;;;11.40;5.20;;;;;;;7.28;36.68;95550.84;4989927;28;20228;-68
2022/02/04 02:02:51;;;;;;;8.52;5.43;;;;;;;7.40;36.87;95550.91;4993346;28;20690;-70
2022/02/04 02:05:18;;;;;;;10.82;6.43;;;;;;;7.56;36.70;95550.28;4998793;28;20194;-70
2022/02/04 02:07:47;;;;;;;9.27;6.00;;;;;;;7.34;36.00;95520.47;4991453;28;20221;-70
2022/02/04 02:10:17;;;;;;;15.63;9.13;;;;;;;7.47;36.67;95543.78;4989719;28;20202;-70
2022/02/04 02:41:23;;;;;;;25.42;15.73;;;;;;;6.26;37.87;95537.63;4989264;28;20686;-71
2022/02/04 02:46:02;;;;;;;28.05;16.90;;;;;;;5.98;38.74;95548.47;4989550;28;20245;-70
2022/02/04 03:01:17;;;;;;;32.63;18.58;;;;;;;5.74;38.99;95557.00;4989177;28;20199;-68
2022/02/04 03:03:49;;;;;;;32.10;18.60;;;;;;;5.57;39.28;95570.69;4992310;28;20205;-69
2022/02/04 03:06:16;;;;;;;30.65;18.27;;;;;;;5.90;38.72;95555.72;4993121;28;20210;-70
2022/02/04 03:08:42;;;;;;;27.10;16.67;;;;;;;5.71;38.97;95567.03;4992489;28;20272;-68
2022/02/04 03:11:09;;;;;;;28.98;17.52;;;;;;;6.00;38.51;95563.88;4992652;28;20269;-69
2022/02/04 03:13:36;;;;;;;32.80;18.50;;;;;;;5.70;38.77;95563.63;4991257;28;20236;-68
2022/02/04 03:16:07;;;;;;;34.53;17.42;;;;;;;5.47;39.27;95554.75;4992679;28;20290;-70
2022/02/04 03:18:38;;;;;;;34.80;17.92;;;;;;;5.77;39.04;95566.16;4991852;28;20240;-70
2022/02/04 03:21:17;;;;;;;29.35;18.15;;;;;;;5.52;38.89;95554.91;4992514;28;20198;-69
2022/02/04 03:23:50;;;;;;;28.80;18.67;;;;;;;5.31;39.55;95565.63;4992619;28;20191;-70
2022/02/04 03:28:50;;;;;;;28.70;16.92;;;;;;;5.01;40.01;95560.94;4992457;28;20222;-69
2022/02/04 03:31:17;;;;;;;28.98;16.77;;;;;;;4.95;40.00;95553.94;4992401;28;20276;-69
2022/02/04 03:33:46;;;;;;;31.38;17.92;;;;;;;4.97;39.95;95554.53;4991542;28;20226;-69
2022/02/04 03:36:13;;;;;;;28.45;17.23;;;;;;;4.75;40.53;95552.38;4992201;28;20692;-71
2022/02/04 03:38:40;;;;;;;28.05;16.85;;;;;;;4.65;40.55;95516.47;4992340;28;20197;-70
2022/02/04 03:41:07;;;;;;;28.80;16.80;;;;;;;5.07;40.26;95546.31;4992410;28;20686;-69
2022/02/04 03:43:34;;;;;;;29.52;16.73;;;;;;;5.32;39.81;95543.81;4991807;28;20210;-70
2022/02/04 03:46:01;;;;;;;27.63;16.15;;;;;;;5.44;39.64;95547.38;4992511;28;20202;-69
2022/02/04 03:48:28;;;;;;;28.98;17.50;;;;;;;5.24;39.87;95544.06;4991529;28;20554;-70
2022/02/04 03:50:55;;;;;;;32.65;18.20;;;;;;;5.35;39.06;95540.78;4992222;28;20658;-70
2022/02/04 03:53:22;;;;;;;28.48;16.90;;;;;;;5.18;39.18;95524.91;4991577;28;20217;-70
2022/02/04 03:55:49;;;;;;;28.08;15.30;;;;;;;5.08;38.96;95538.31;4990725;28;20171;-70
2022/02/04 03:58:16;;;;;;;24.65;14.75;;;;;;;5.22;39.19;95535.69;4991827;28;20636;-69
2022/02/04 04:00:43;;;;;;;23.27;12.45;;;;;;;5.48;38.43;95540.72;4992210;28;20195;-70
2022/02/04 04:03:10;;;;;;;19.58;10.65;;;;;;;5.51;37.31;95537.75;4991480;28;20264;-70
2022/02/04 04:05:42;;;;;;;19.67;11.05;;;;;;;5.10;37.49;95532.91;4991894;28;20199;-71
2022/02/04 04:08:09;;;;;;;15.02;9.18;;;;;;;4.94;37.67;95529.00;4991766;28;20217;-70
2022/02/04 04:10:40;;;;;;;14.55;8.75;;;;;;;4.99;37.50;95505.78;4991783;28;20178;-71
2022/02/04 04:13:08;;;;;;;13.35;6.28;;;;;;;5.14;36.99;95528.91;4990805;28;20289;-69
2022/02/04 04:15:35;;;;;;;10.73;6.63;;;;;;;5.07;36.58;95521.13;4991820;28;20265;-70
2022/02/04 04:18:03;;;;;;;11.05;7.35;;;;;;;5.08;37.11;95529.72;4991142;28;20242;-70
2022/02/04 04:20:31;;;;;;;11.27;7.75;;;;;;;4.98;36.86;95519.00;4991663;28;20211;-70
2022/02/04 04:22:59;;;;;;;13.95;7.07;;;;;;;5.40;36.11;95523.56;4990634;28;20771;-69
2022/02/04 04:25:28;;;;;;;9.88;6.65;;;;;;;5.21;36.75;95524.47;4990866;28;20194;-70
2022/02/04 04:27:55;;;;;;;11.05;6.53;;;;;;;5.36;36.77;95521.63;4991513;28;20218;-71
2022/02/04 04:30:24;;;;;;;10.38;6.05;;;;;;;5.52;36.59;95531.53;4990886;28;20286;-70
2022/02/04 04:32:53;;;;;;;8.85;5.97;;;;;;;5.65;36.41;95523.66;4991106;28;20284;-70
2022/02/04 04:35:24;;;;;;;11.60;5.65;;;;;;;5.47;36.42;95523.56;4990688;28;20233;-70
2022/02/04 04:45:50;;;;;;;16.48;7.97;;;;;;;5.56;35.83;95527.50;4990551;28;20204;-70
2022/02/04 05:29:20;;;;;;;8.27;5.30;;;;;;;5.33;35.92;95537.63;5004746;28;20286;-70
2022/02/04 05:31:47;;;;;;;14.70;7.55;;;;;;;5.35;37.85;95552.00;4990163;28;20678;-70
2022/02/04 05:34:16;;;;;;;12.93;6.78;;;;;;;5.66;39.19;95556.44;4993353;28;20292;-72
2022/02/04 05:36:46;;;;;;;10.75;5.53;;;;;;;5.81;36.71;95552.56;5010237;28;20205;-72
2022/02/04 05:39:17;;;;;;;9.60;6.22;;;;;;;5.73;36.08;95545.00;5010013;28;20226;-74
2022/02/04 05:41:48;;;;;;;11.10;6.60;;;;;;;5.66;36.05;95553.81;5008986;28;20210;-73
2022/02/04 05:44:16;;;;;;;11.25;6.18;;;;;;;5.68;35.83;95550.03;5008088;28;20256;-70
2022/02/04 05:46:52;;;;;;;13.27;7.70;;;;;;;5.71;35.81;95543.63;5009209;28;20220;-71
2022/02/04 05:49:22;;;;;;;18.48;10.52;;;;;;;5.96;35.39;95550.50;5008904;28;20204;-68
2022/02/04 05:54:26;;;;;;;25.80;13.35;;;;;;;5.86;36.34;95554.53;5009439;28;20653;-71
2022/02/04 05:57:14;;;;;;;24.05;11.75;;;;;;;5.92;36.06;95553.72;5010597;28;20211;-75
2022/02/04 06:02:42;;;;;;;43.22;26.90;;;;;;;5.64;36.70;95561.06;5010603;28;20205;-72
2022/02/04 06:24:06;;;;;;;38.03;19.85;;;;;;;5.47;36.83;95570.34;4986944;28;20200;-75
2022/02/04 06:26:33;;;;;;;43.55;24.83;;;;;;;5.70;37.50;95574.03;4986806;28;20246;-72
2022/02/04 06:29:00;;;;;;;56.90;32.10;;;;;;;5.62;37.39;95563.06;4987426;28;20198;-72
2022/02/04 06:31:28;;;;;;;52.38;28.77;;;;;;;5.68;37.38;95583.03;4988026;28;20201;-70
2022/02/04 06:33:54;;;;;;;57.95;30.95;;;;;;;5.60;37.49;95584.06;4989402;28;20705;-72
2022/02/04 06:36:21;;;;;;;20.60;11.18;;;;;;;4.57;38.29;95576.38;4990277;28;20227;-74
2022/02/04 06:38:49;;;;;;;16.60;8.75;;;;;;;4.99;37.11;95591.50;4993501;28;20221;-70
2022/02/04 06:41:16;;;;;;;16.83;9.15;;;;;;;4.87;37.56;95585.31;4993807;28;20270;-71
2022/02/04 06:43:43;;;;;;;18.10;9.00;;;;;;;4.87;37.23;95582.72;4992739;28;20214;-70
2022/02/04 06:46:10;;;;;;;19.30;10.68;;;;;;;4.85;37.66;95576.94;4993915;28;20199;-69
2022/02/04 06:48:37;;;;;;;23.77;13.55;;;;;;;5.34;37.27;95591.19;4992508;28;20241;-71
2022/02/04 06:51:04;;;;;;;38.65;21.55;;;;;;;5.72;37.34;95584.22;4994083;28;20183;-73
2022/02/04 06:53:31;;;;;;;40.60;21.70;;;;;;;5.83;37.33;95580.97;4993444;28;20234;-76
2022/02/04 06:55:58;;;;;;;47.65;20.17;;;;;;;6.11;36.61;95578.81;4993877;28;20222;-71
2022/02/04 06:58:25;;;;;;;32.70;19.48;;;;;;;6.12;37.10;95580.38;4994040;28;20214;-72
2022/02/04 07:00:52;;;;;;;37.10;19.85;;;;;;;6.12;36.75;95549.16;4994209;28;20213;-72
2022/02/04 07:03:19;;;;;;;38.38;20.00;;;;;;;5.88;37.07;95573.34;4993611;28;20203;-76
2022/02/04 07:05:56;;;;;;;44.03;22.52;;;;;;;6.01;37.50;95588.88;4993719;28;20745;-77
2022/02/04 07:08:46;;;;;;;57.88;30.52;;;;;;;6.02;38.25;95582.66;4993239;28;20310;-73
2022/02/04 07:14:31;;;;;;;70.80;37.97;;;;;;;5.95;41.88;95592.28;4993392;28;20199;-73
2022/02/04 07:19:51;;;;;;;79.75;44.28;;;;;;;5.99;38.52;95590.88;4992748;28;20645;-73
2022/02/04 07:22:19;;;;;;;75.07;41.33;;;;;;;5.98;37.95;95584.91;4993302;28;20199;-70
2022/02/04 07:24:50;;;;;;;54.65;31.23;;;;;;;5.82;37.93;95581.97;4993307;28;20550;-71
2022/02/04 07:27:20;;;;;;;76.50;42.45;;;;;;;5.93;37.99;95582.09;4993805;28;20215;-71
2022/02/04 07:29:48;;;;;;;138.63;73.63;;;;;;;5.95;37.96;95593.09;4993435;28;20187;-71
2022/02/04 07:32:22;;;;;;;156.68;81.15;;;;;;;6.08;37.80;95592.22;4994111;28;20182;-70
2022/02/04 07:42:56;;;;;;;160.63;85.20;;;;;;;6.69;37.69;95587.94;4992954;28;20186;-70
2022/02/04 07:45:24;;;;;;;153.70;84.95;;;;;;;6.87;38.21;95589.78;4992786;28;20202;-71
2022/02/04 07:47:56;;;;;;;133.05;69.35;;;;;;;6.61;39.99;95580.41;4992716;28;20257;-71
2022/02/04 07:50:23;;;;;;;137.82;76.55;;;;;;;6.75;39.66;95592.28;4992489;28;20216;-71
2022/02/04 07:52:51;;;;;;;108.57;59.33;;;;;;;6.97;39.46;95585.66;4993422;28;20573;-70
2022/02/04 07:55:21;;;;;;;99.32;55.85;;;;;;;6.94;38.95;95585.28;4992344;28;20721;-70
2022/02/04 07:57:49;;;;;;;89.57;50.65;;;;;;;7.43;37.99;95568.69;4993238;28;20199;-70
2022/02/04 08:00:17;;;;;;;73.07;42.33;;;;;;;7.63;37.53;95564.03;4992638;28;20678;-71
2022/02/04 08:02:46;;;;;;;63.67;37.17;;;;;;;7.73;37.13;95579.97;5005486;28;20202;-70
2022/02/04 08:05:17;;;;;;;64.15;36.05;;;;;;;7.55;36.96;95577.41;5001023;28;20175;-71
2022/02/04 08:10:36;;;;;;;81.25;42.05;;;;;;;7.95;35.61;95573.25;4993585;28;20232;-73
2022/02/04 08:28:57;;;;;;;100.18;53.85;;;;;;;8.47;34.90;95564.66;4991875;28;20187;-76
2022/02/04 08:37:08;;;;;;;105.25;59.47;;;;;;;8.25;35.58;95563.59;4992635;28;20199;-70
2022/02/04 08:55:40;;;;;;;78.07;43.08;;;;;;;9.46;34.55;95559.22;4991200;28;20225;-68
2022/02/04 08:58:23;;;;;;;74.65;39.35;;;;;;;8.72;34.28;95556.63;4991798;28;20202;-71
2022/02/04 09:01:01;;;;;;;68.38;38.92;;;;;;;9.53;34.07;95559.88;4992004;28;20189;-72
2022/02/04 09:03:37;;;;;;;68.45;37.85;;;;;;;9.44;34.59;95558.66;5001375;28;20601;-73
2022/02/04 09:06:20;;;;;;;70.28;41.25;;;;;;;9.55;33.73;95554.41;5005202;28;20701;-73
2022/02/04 09:08:54;;;;;;;67.50;40.10;;;;;;;9.89;33.76;95558.75;4991600;28;20195;-71
2022/02/04 09:19:58;;;;;;;67.65;36.80;;;;;;;10.30;33.06;95536.69;4991413;28;20209;-70
2022/02/04 09:25:06;;;;;;;63.22;36.83;;;;;;;10.81;32.35;95518.88;4990572;28;20249;-68
2022/02/04 09:27:34;;;;;;;61.38;34.35;;;;;;;10.74;32.71;95528.72;4991235;28;20209;-71
2022/02/04 09:30:06;;;;;;;57.58;35.50;;;;;;;10.83;31.95;95527.28;4991073;28;20200;-71
2022/02/04 09:32:36;;;;;;;64.32;36.33;;;;;;;11.42;31.72;95517.03;4991265;28;20233;-65
2022/02/04 09:35:04;;;;;;;57.60;33.45;;;;;;;11.96;30.72;95521.28;4990524;28;20760;-74
2022/02/04 09:37:31;;;;;;;55.42;35.17;;;;;;;11.79;30.99;95500.38;4991153;28;20640;-77
2022/02/04 09:39:58;;;;;;;63.58;34.63;;;;;;;12.41;30.29;95495.41;4990626;28;20203;-70
2022/02/04 09:42:27;;;;;;;58.55;35.40;;;;;;;12.88;29.40;95501.50;4990880;28;20200;-72
2022/02/04 09:44:54;;;;;;;60.00;36.38;;;;;;;13.03;29.27;95500.81;4990739;28;20261;-69
2022/02/04 09:47:24;;;;;;;61.70;36.15;;;;;;;12.56;28.93;95499.97;4991085;28;20225;-70
2022/02/04 09:50:15;;;;;;;59.33;32.67;;;;;;;12.18;30.25;95507.06;4990940;28;20676;-69
2022/02/04 10:15:34;;;;;;;52.33;31.92;;;;;;;12.42;30.12;95489.13;4990346;28;20704;-68
2022/02/04 10:18:10;;;;;;;52.13;31.60;;;;;;;12.69;29.28;95484.56;4990328;28;20234;-69
2022/02/04 10:20:42;;;;;;;49.97;31.98;;;;;;;12.72;29.36;95473.53;4990578;28;20182;-70
2022/02/04 10:23:11;;;;;;;50.00;30.65;;;;;;;12.92;29.80;95478.91;4990119;28;20201;-74
2022/02/04 10:25:42;;;;;;;53.50;30.47;;;;;;;12.64;29.32;95471.41;4991124;28;20186;-67
2022/02/04 10:28:26;;;;;;;50.90;27.63;;;;;;;13.04;29.59;95471.66;4989278;28;20448;-71
2022/02/04 10:31:21;;;;;;;42.87;21.87;;;;;;;12.95;28.70;95470.53;4990751;28;20433;-72
2022/02/04 10:33:54;;;;;;;32.47;21.77;;;;;;;12.85;28.60;95459.94;4989475;28;20481;-68
2022/02/04 10:36:36;;;;;;;38.57;22.33;;;;;;;13.35;28.34;95458.59;4990254;28;20512;-72
2022/02/04 10:42:37;;;;;;;40.63;23.52;;;;;;;13.37;29.28;95459.94;4990248;28;20702;-71
2022/02/04 10:53:41;;;;;;;44.17;23.43;;;;;;;13.13;29.23;95437.75;4989676;28;20477;-71
2022/02/04 10:56:43;;;;;;;37.63;23.47;;;;;;;13.19;28.82;95426.19;4990196;28;20584;-72
2022/02/04 11:04:45;;;;;;;41.15;23.10;;;;;;;12.87;29.47;95433.38;4992969;28;20642;-71
2022/02/04 11:07:37;;;;;;;38.03;21.70;;;;;;;13.31;28.82;95429.38;4990115;28;20926;-73
2022/02/04 11:10:16;;;;;;;37.50;21.37;;;;;;;12.29;29.79;95425.69;4989843;28;20425;-67
2022/02/04 11:43:48;;;;;;;30.15;19.70;;;;;;;12.32;29.99;95404.94;4993249;28;20210;-70
2022/02/04 11:55:11;;;;;;;35.55;21.08;;;;;;;12.75;30.00;95391.53;4992814;28;20210;-72
2022/02/04 11:58:00;;;;;;;33.70;21.10;;;;;;;12.74;29.58;95389.13;4993313;28;20281;-72
2022/02/04 12:00:40;;;;;;;41.03;22.65;;;;;;;12.94;29.22;95374.22;4992784;28;20293;-73
2022/02/04 12:03:41;;;;;;;39.50;23.53;;;;;;;13.23;29.19;95378.03;4992210;28;20206;-71
2022/02/04 12:06:08;;;;;;;38.37;22.43;;;;;;;13.49;29.01;95362.28;4992795;28;20476;-71
2022/02/04 12:08:35;;;;;;;38.88;21.80;;;;;;;14.09;28.56;95370.19;4991991;28;20964;-72
2022/02/04 12:11:05;;;;;;;31.00;21.07;;;;;;;13.46;28.11;95362.81;4992836;28;20206;-72
2022/02/04 12:14:10;;;;;;;34.90;21.50;;;;;;;14.53;27.49;95355.38;4991875;28;20456;-70
2022/02/04 12:17:16;;;;;;;34.63;20.57;;;;;;;15.52;26.10;95341.19;4993077;28;20512;-68
2022/02/04 12:19:46;;;;;;;29.80;20.30;;;;;;;16.10;25.18;95342.84;4992071;28;20441;-74
2022/02/04 12:22:13;;;;;;;38.13;22.27;;;;;;;16.38;25.93;95343.91;4993203;28;20508;-73
2022/02/04 12:24:45;;;;;;;31.40;19.90;;;;;;;16.90;25.01;95328.75;4991884;28;20828;-73
2022/02/04 12:27:29;;;;;;;35.77;23.30;;;;;;;17.11;24.23;95324.81;4992976;28;20528;-74
2022/02/04 12:29:57;;;;;;;34.90;22.10;;;;;;;17.29;24.28;95325.88;4992057;28;20544;-77
2022/02/04 12:32:24;;;;;;;37.43;22.13;;;;;;;18.05;23.54;95328.16;4992298;28;21067;-72
2022/02/04 12:34:51;;;;;;;37.87;22.30;;;;;;;17.48;23.98;95328.56;4990655;28;20624;-77
2022/02/04 12:37:20;;;;;;;39.37;22.83;;;;;;;-140.05;100.00;61859.38;4992267;28;20528;-75
2022/02/04 12:39:48;;;;;;;34.43;21.80;;;;;;;-140.05;100.00;61859.38;4991988;28;20493;-75
2022/02/04 12:42:17;;;;;;;38.50;23.27;;;;;;;-140.05;100.00;61859.38;4992543;28;20434;-76
2022/02/04 12:44:46;;;;;;;37.13;23.37;;;;;;;-140.05;100.00;61859.38;4992068;28;20457;-72
2022/02/04 12:47:16;;;;;;;31.80;20.80;;;;;;;-140.05;100.00;61859.38;4992076;28;20440;-69
2022/02/04 12:49:54;;;;;;;37.13;21.00;;;;;;;-140.05;100.00;61859.38;4990253;28;20960;-72
2022/02/04 12:52:30;;;;;;;33.40;20.97;;;;;;;-140.05;100.00;61859.38;4990376;28;20442;-70
2022/02/04 12:55:07;;;;;;;29.17;20.37;;;;;;;-140.05;100.00;61859.38;4987720;28;20501;-70
2022/02/04 13:08:22;;;;;;;28.63;19.13;;;;;;;-140.05;100.00;61859.38;4991086;28;20524;-75
2022/02/04 13:11:01;;;;;;;31.47;18.20;;;;;;;-140.05;100.00;61859.38;4988874;28;20496;-75
2022/02/04 13:13:44;;;;;;;28.20;18.73;;;;;;;-140.05;100.00;61859.38;4990071;28;20457;-71
2022/02/04 13:16:27;;;;;;;26.33;17.67;;;;;;;-140.05;100.00;61859.38;4991055;28;20481;-71
2022/02/04 13:19:01;;;;;;;29.60;19.63;;;;;;;-140.05;100.00;61859.38;4987321;28;20470;-71
2022/02/04 13:21:30;;;;;;;25.97;18.30;;;;;;;-140.05;100.00;61859.38;4991922;28;20824;-76
2022/02/04 13:24:05;;;;;;;32.67;19.13;;;;;;;-140.05;100.00;61859.38;4991413;28;20496;-75
2022/02/04 13:26:34;;;;;;;28.37;17.00;;;;;;;-140.05;100.00;61859.38;4992083;28;20445;-74
2022/02/04 13:31:49;;;;;;;23.73;15.43;;;;;;;-140.05;100.00;61859.38;4990042;28;20449;-72
2022/02/04 13:34:18;;;;;;;26.07;16.37;;;;;;;-140.05;100.00;61859.38;4988640;28;20434;-72
2022/02/04 13:36:53;;;;;;;22.50;16.20;;;;;;;-140.05;100.00;61859.38;4991151;28;20488;-65
2022/02/04 13:40:16;;;;;;;31.53;16.90;;;;;;;-140.05;100.00;61859.38;4990724;28;20452;-67
2022/02/04 13:42:32;;;;;;;27.97;17.20;;;;;;;-140.05;100.00;61859.38;4990903;28;20460;-71
2022/02/04 13:45:12;;;;;;;28.33;16.23;;;;;;;-140.05;100.00;61859.38;4990269;28;20822;-70
2022/02/04 13:53:00;;;;;;;29.97;17.30;;;;;;;-140.05;100.00;61859.38;4991308;28;20445;-68
2022/02/04 13:58:25;;;;;;;25.00;17.03;;;;;;;-140.05;100.00;61859.38;4990291;28;20452;-70
2022/02/04 14:03:44;;;;;;;27.07;18.90;;;;;;;-140.05;100.00;61859.38;4998836;28;20508;-70
2022/02/04 14:06:32;;;;;;;30.93;18.37;;;;;;;-140.05;100.00;61859.38;5002826;28;20446;-71
2022/02/04 14:09:12;;;;;;;28.30;17.93;;;;;;;-140.05;100.00;61859.38;4992328;28;20969;-69
2022/02/04 14:11:44;;;;;;;31.60;19.33;;;;;;;-140.05;100.00;61859.38;4990483;28;20448;-70
2022/02/04 14:14:27;;;;;;;30.87;19.33;;;;;;;-140.05;100.00;61859.38;4989313;28;20975;-71
2022/02/04 14:16:56;;;;;;;27.90;18.90;;;;;;;-140.05;100.00;61859.38;4983881;28;20842;-75
2022/02/04 14:19:25;;;;;;;27.77;18.67;;;;;;;-140.05;100.00;61859.38;4990928;28;20452;-72
2022/02/04 14:21:53;;;;;;;35.67;19.37;;;;;;;-140.05;100.00;61859.38;4990605;28;20659;-71
2022/02/04 14:24:22;;;;;;;45.83;25.33;;;;;;;-140.05;100.00;61859.38;4988385;28;20957;-70
2022/02/04 14:26:54;;;;;;;40.80;27.80;;;;;;;-140.05;100.00;61859.38;4989814;28;20446;-70
2022/02/04 14:53:24;;;;;;;53.83;29.40;;;;;;;-140.05;100.00;61859.38;4989922;28;20868;-71
2022/02/04 14:59:09;;;;;;;48.57;25.77;;;;;;;-140.05;100.00;61859.38;4990880;28;20500;-70
2022/02/04 15:01:55;;;;;;;34.20;22.37;;;;;;;-140.05;100.00;61859.38;4994094;28;20862;-69
2022/02/04 15:04:39;;;;;;;42.07;22.00;;;;;;;-140.05;100.00;61859.38;4993329;28;20449;-70
2022/02/04 15:07:07;;;;;;;34.28;20.67;;;;;;;-140.05;100.00;61859.38;4993638;28;20460;-69
2022/02/04 15:09:37;;;;;;;36.10;19.30;;;;;;;-140.05;100.00;61859.38;4993462;28;20248;-69
2022/02/04 15:12:05;;;;;;;32.67;19.55;;;;;;;-140.05;100.00;61859.38;4993767;28;20445;-69
2022/02/04 15:14:31;;;;;;;34.63;19.73;;;;;;;-140.05;100.00;61859.38;4993071;28;20194;-70
2022/02/04 15:16:58;;;;;;;32.13;18.45;;;;;;;-140.05;100.00;61859.38;4993554;28;20238;-70
2022/02/04 15:19:30;;;;;;;34.22;19.15;;;;;;;-140.05;100.00;61859.38;4993209;28;20191;-71
2022/02/04 15:21:57;;;;;;;26.10;16.35;;;;;;;-140.05;100.00;61859.38;4993335;28;20230;-70
2022/02/04 15:24:24;;;;;;;32.75;17.20;;;;;;;-140.05;100.00;61859.38;4992932;28;20282;-69
2022/02/04 15:26:51;;;;;;;31.73;17.33;;;;;;;-140.05;100.00;61859.38;4993358;28;20199;-68
2022/02/04 15:29:19;;;;;;;34.53;18.13;;;;;;;-140.05;100.00;61859.38;4992834;28;20201;-71
2022/02/04 15:31:56;;;;;;;51.65;32.50;;;;;;;-140.05;100.00;61859.38;4993145;28;20264;-67
2022/02/04 15:34:24;;;;;;;48.90;28.58;;;;;;;-140.05;100.00;61859.38;4991238;28;20689;-69
2022/02/04 15:36:53;;;;;;;30.95;18.10;;;;;;;-140.05;100.00;61859.38;4992614;28;20230;-68
2022/02/04 15:39:23;;;;;;;34.87;18.13;;;;;;;-140.05;100.00;61859.38;4992567;28;20269;-66
2022/02/04 15:41:54;;;;;;;29.42;16.65;;;;;;;-140.05;100.00;61859.38;4990195;28;20446;-68
2022/02/04 15:44:34;;;;;;;29.45;17.38;;;;;;;-140.05;100.00;61859.38;4991156;28;20206;-69
2022/02/04 16:00:34;;;;;;;34.88;15.88;;;;;;;-140.05;100.00;61859.38;4989007;28;20285;-70
2022/02/04 16:05:31;;;;;;;34.85;17.63;;;;;;;-140.05;100.00;61859.38;4991359;28;20195;-69
2022/02/04 16:07:58;;;;;;;37.17;18.75;;;;;;;-140.05;100.00;61859.38;4991378;28;20194;-68
2022/02/04 16:13:11;;;;;;;38.38;20.08;;;;;;;-140.05;100.00;61859.38;4991831;28;20202;-66
2022/02/04 16:15:51;;;;;;;41.65;20.45;;;;;;;-140.05;100.00;61859.38;4991472;28;20205;-72
2022/02/04 16:18:23;;;;;;;40.75;20.52;;;;;;;-140.05;100.00;61859.38;4989436;28;20318;-72
2022/02/04 16:23:33;;;;;;;49.05;30.65;;;;;;;-140.05;100.00;61859.38;4971936;28;20681;-67
2022/02/04 16:26:25;;;;;;;40.28;20.75;;;;;;;-140.05;100.00;61859.38;4977196;28;20579;-70
2022/02/04 16:28:48;;;;;;;35.72;20.27;;;;;;;-140.05;100.00;61859.38;4988330;28;20720;-69
2022/02/04 16:31:17;;;;;;;33.50;20.65;;;;;;;-140.05;100.00;61859.38;4991496;28;20633;-75
2022/02/04 16:33:46;;;;;;;42.03;22.23;;;;;;;-140.05;100.00;61859.38;4989416;28;20202;-69
2022/02/04 16:36:16;;;;;;;43.47;22.88;;;;;;;-140.05;100.00;61859.38;4991960;28;20253;-71
2022/02/04 16:38:51;;;;;;;46.38;24.05;;;;;;;-140.05;100.00;61859.38;4991681;28;20217;-67
2022/02/04 16:41:28;;;;;;;57.28;23.38;;;;;;;-140.05;100.00;61859.38;4991501;28;20225;-67
2022/02/04 16:43:57;;;;;;;69.72;35.88;;;;;;;-140.05;100.00;61859.38;4990190;28;20566;-66
2022/02/04 16:46:24;;;;;;;93.88;47.20;;;;;;;-140.05;100.00;61859.38;4992298;28;20201;-69
2022/02/04 16:48:51;;;;;;;43.08;23.35;;;;;;;-140.05;100.00;61859.38;4989750;28;20195;-69
2022/02/04 16:51:18;;;;;;;53.78;23.45;;;;;;;-140.05;100.00;61859.38;4988241;28;20226;-69
2022/02/04 16:53:45;;;;;;;54.83;23.38;;;;;;;-140.05;100.00;61859.38;4990960;28;20330;-69
2022/02/04 16:56:12;;;;;;;46.03;25.40;;;;;;;-140.05;100.00;61859.38;4991948;28;20202;-67
2022/02/04 16:58:39;;;;;;;49.88;25.30;;;;;;;-140.05;100.00;61859.38;4995825;28;20201;-68
2022/02/04 17:01:06;;;;;;;54.10;28.27;;;;;;;-140.05;100.00;61859.38;5011862;28;20305;-71
2022/02/04 17:03:33;;;;;;;55.90;28.48;;;;;;;-140.05;100.00;61859.38;4996326;28;20202;-71
2022/02/04 17:06:04;;;;;;;62.45;29.73;;;;;;;-140.05;100.00;61859.38;4991216;28;20689;-70
2022/02/04 17:08:34;;;;;;;64.43;31.15;;;;;;;-140.05;100.00;61859.38;4989739;28;20733;-72
2022/02/04 17:11:03;;;;;;;67.05;33.15;;;;;;;-140.05;100.00;61859.38;4990552;28;20238;-74
2022/02/04 17:13:30;;;;;;;59.35;31.95;;;;;;;-140.05;100.00;61859.38;4989121;28;20209;-69
2022/02/04 17:15:57;;;;;;;61.58;33.55;;;;;;;-140.05;100.00;61859.38;4988876;28;20245;-79
2022/02/04 17:18:24;;;;;;;62.05;32.80;;;;;;;-140.05;100.00;61859.38;4989390;28;20238;-72
2022/02/04 17:20:52;;;;;;;65.38;32.45;;;;;;;-140.05;100.00;61859.38;4997497;28;20596;-74
2022/02/04 17:23:31;;;;;;;59.55;30.70;;;;;;;-140.05;100.00;61859.38;4981147;28;20209;-71
2022/02/04 17:25:59;;;;;;;67.70;33.78;;;;;;;-140.05;100.00;61859.38;4971409;28;20673;-76
2022/02/04 17:28:29;;;;;;;66.85;34.55;;;;;;;-140.05;100.00;61859.38;4976741;28;20202;-72
2022/02/04 17:30:57;;;;;;;65.10;33.53;;;;;;;-140.05;100.00;61859.38;4991715;28;20213;-72
2022/02/04 17:33:27;;;;;;;58.70;33.50;;;;;;;-140.05;100.00;61859.38;4998249;28;20198;-72
2022/02/04 17:35:58;;;;;;;73.25;37.30;;;;;;;-140.05;100.00;61859.38;5002845;28;20581;-80
2022/02/04 17:38:27;;;;;;;70.90;36.10;;;;;;;-140.05;100.00;61859.38;5007143;28;20230;-76
2022/02/04 17:40:58;;;;;;;69.32;36.50;;;;;;;-140.05;100.00;61859.38;5004369;28;20198;-76
2022/02/04 17:43:25;;;;;;;77.82;41.15;;;;;;;-140.05;100.00;61859.38;4990829;28;20202;-77
2022/02/04 17:45:53;;;;;;;75.28;39.10;;;;;;;-140.05;100.00;61859.38;4996742;28;20198;-73
2022/02/04 17:48:26;;;;;;;74.20;40.47;;;;;;;-140.05;100.00;61859.38;4990917;28;20230;-78
2022/02/04 17:51:11;;;;;;;76.78;39.17;;;;;;;-140.05;100.00;61859.38;5010580;28;20201;-69
2022/02/04 17:53:51;;;;;;;77.47;39.95;;;;;;;-140.05;100.00;61859.38;5009556;28;20235;-74
2022/02/04 18:07:21;;;;;;;80.55;42.55;;;;;;;-140.05;100.00;61859.38;4991192;28;20202;-82
2022/02/04 18:09:49;;;;;;;71.32;41.55;;;;;;;-140.05;100.00;61859.38;4990114;28;20253;-74
2022/02/04 18:12:25;;;;;;;69.07;38.53;;;;;;;-140.05;100.00;61859.38;4994908;28;20193;-71
2022/02/04 18:14:52;;;;;;;68.53;37.80;;;;;;;-140.05;100.00;61859.38;4996728;28;20205;-72
2022/02/04 18:17:20;;;;;;;67.40;37.80;;;;;;;-140.05;100.00;61859.38;4995759;28;20708;-71
2022/02/04 18:19:47;;;;;;;70.28;37.50;;;;;;;-140.05;100.00;61859.38;4993493;28;20206;-71